Time;durP1;ratioP1;P1;durP2;ratioP2;P2;SDS_P1;SDS_P2;PMS_P1;PMS_P2;Temp;Humidity;BMP_temperature;BMP_pressure;BME280_temperature;BME280_humidity;BME280_pressure;Samples;Min_cycle;Max_cycle;Signal;HPM_P1;HPM_P2
2023/04/16 00:00:20;;;;;;;8.40;1.13;;;;;;;;;;5012305;28;20029;-78
2023/04/16 00:02:46;;;;;;;3.75;0.98;;;;;;;;;;5011997;28;20025;-78
2023/04/16 00:05:13;;;;;;;4.03;1.10;;;;;;;;;;5011941;28;20104;-77
2023/04/16 00:07:38;;;;;;;4.70;0.90;;;;;;;;;;5011874;28;20584;-76
2023/04/16 00:10:04;;;;;;;5.45;0.90;;;;;;;;;;5012182;28;20655;-77
2023/04/16 00:12:30;;;;;;;2.90;0.88;;;;;;;;;;5010539;28;20026;-76
2023/04/16 00:14:55;;;;;;;8.90;1.42;;;;;;;;;;5011998;28;20036;-74
2023/04/16 00:17:20;;;;;;;4.28;0.95;;;;;;;;;;5011760;28;20033;-69
2023/04/16 00:19:46;;;;;;;5.68;1.08;;;;;;;;;;5011790;28;20113;-76
2023/04/16 00:22:11;;;;;;;8.30;1.30;;;;;;;;;;5010216;28;20022;-77
2023/04/16 00:24:36;;;;;;;8.57;1.25;;;;;;;;;;5011763;28;20094;-77
2023/04/16 00:27:02;;;;;;;3.35;0.82;;;;;;;;;;5011660;28;20416;-77
2023/04/16 00:29:29;;;;;;;4.10;0.77;;;;;;;;;;5011692;28;20033;-69
2023/04/16 00:31:55;;;;;;;2.97;0.82;;;;;;;;;;5011488;28;20025;-77
2023/04/16 00:34:20;;;;;;;4.90;0.88;;;;;;;;;;5011493;28;20018;-76
2023/04/16 00:36:46;;;;;;;5.75;1.00;;;;;;;;;;5011293;28;20053;-77
2023/04/16 00:39:11;;;;;;;6.25;1.02;;;;;;;;;;5011487;28;20029;-77
2023/04/16 00:41:37;;;;;;;6.63;0.98;;;;;;;;;;5011146;28;20014;-75
2023/04/16 00:44:02;;;;;;;4.55;1.00;;;;;;;;;;5011296;28;20033;-77
2023/04/16 00:46:28;;;;;;;4.72;1.20;;;;;;;;;;5011585;28;20041;-77
2023/04/16 00:48:54;;;;;;;5.28;0.80;;;;;;;;;;5011178;28;20370;-77
2023/04/16 00:51:20;;;;;;;8.40;1.08;;;;;;;;;;5011151;28;20029;-78
2023/04/16 00:53:46;;;;;;;5.60;1.10;;;;;;;;;;5011077;28;20033;-77
2023/04/16 00:56:12;;;;;;;5.93;1.13;;;;;;;;;;5011037;28;20034;-77
2023/04/16 00:58:38;;;;;;;4.18;0.90;;;;;;;;;;5010892;28;20486;-77
2023/04/16 01:01:04;;;;;;;4.00;0.85;;;;;;;;;;5011078;28;20026;-77
2023/04/16 01:03:42;;;;;;;6.93;1.10;;;;;;;;;;5011142;28;20022;-77
2023/04/16 01:06:08;;;;;;;6.30;1.40;;;;;;;;;;5011038;28;20072;-77
2023/04/16 01:08:34;;;;;;;6.15;1.30;;;;;;;;;;5010714;28;20080;-77
2023/04/16 01:10:59;;;;;;;4.68;1.00;;;;;;;;;;5010910;28;20577;-77
2023/04/16 01:13:25;;;;;;;5.85;1.00;;;;;;;;;;5010512;28;20240;-77
2023/04/16 01:15:51;;;;;;;5.53;1.25;;;;;;;;;;5010727;28;20030;-77
2023/04/16 01:18:18;;;;;;;7.00;1.08;;;;;;;;;;5010746;28;20104;-77
2023/04/16 01:20:44;;;;;;;7.78;1.05;;;;;;;;;;5010764;28;20045;-65
2023/04/16 01:23:10;;;;;;;4.82;1.10;;;;;;;;;;5010671;28;20037;-74
2023/04/16 01:25:36;;;;;;;10.70;1.00;;;;;;;;;;5010712;28;20061;-75
2023/04/16 01:28:01;;;;;;;6.45;1.02;;;;;;;;;;5010429;28;20108;-76
2023/04/16 01:30:27;;;;;;;6.47;1.00;;;;;;;;;;5010432;28;20057;-76
2023/04/16 01:32:52;;;;;;;6.70;1.00;;;;;;;;;;5010085;28;20113;-75
2023/04/16 01:35:18;;;;;;;9.00;1.02;;;;;;;;;;5010546;28;20607;-73
2023/04/16 01:37:43;;;;;;;9.60;1.45;;;;;;;;;;5010415;28;20406;-75
2023/04/16 01:40:09;;;;;;;5.45;0.85;;;;;;;;;;5010217;28;20041;-76
2023/04/16 01:42:34;;;;;;;5.45;0.85;;;;;;;;;;5010009;28;20026;-75
2023/04/16 01:45:00;;;;;;;5.40;1.00;;;;;;;;;;5010365;28;20112;-75
2023/04/16 01:47:26;;;;;;;5.10;0.80;;;;;;;;;;5010248;28;20022;-75
2023/04/16 01:49:51;;;;;;;8.02;1.10;;;;;;;;;;5010039;28;20096;-76
2023/04/16 01:52:16;;;;;;;8.80;1.20;;;;;;;;;;5010002;28;20084;-76
2023/04/16 01:54:42;;;;;;;5.25;1.20;;;;;;;;;;5010320;28;20040;-75
2023/04/16 01:57:08;;;;;;;5.03;1.10;;;;;;;;;;5010068;28;20107;-76
2023/04/16 01:59:33;;;;;;;8.77;1.20;;;;;;;;;;5010233;28;20072;-76
2023/04/16 02:02:09;;;;;;;5.05;1.02;;;;;;;;;;5010021;28;20022;-74
2023/04/16 02:04:37;;;;;;;7.85;1.45;;;;;;;;;;5009925;28;20041;-76
2023/04/16 02:07:03;;;;;;;6.55;1.20;;;;;;;;;;5010057;28;20169;-75
2023/04/16 02:09:28;;;;;;;6.85;1.08;;;;;;;;;;5009792;28;20129;-71
2023/04/16 02:11:53;;;;;;;5.28;1.10;;;;;;;;;;5009807;28;20393;-75
2023/04/16 02:14:20;;;;;;;6.78;1.20;;;;;;;;;;5009841;28;20519;-76
2023/04/16 02:16:46;;;;;;;6.30;1.05;;;;;;;;;;5010116;28;20028;-76
2023/04/16 02:19:11;;;;;;;8.00;1.23;;;;;;;;;;5010119;28;20028;-76
2023/04/16 02:21:36;;;;;;;3.75;0.98;;;;;;;;;;5009905;28;20444;-76
2023/04/16 02:24:02;;;;;;;8.23;1.25;;;;;;;;;;5009728;28;20036;-75
2023/04/16 02:26:28;;;;;;;5.93;1.10;;;;;;;;;;5009814;28;20041;-76
2023/04/16 02:28:54;;;;;;;4.57;1.10;;;;;;;;;;5009553;28;20497;-75
2023/04/16 02:31:21;;;;;;;5.03;1.00;;;;;;;;;;5009801;28;20091;-76
2023/04/16 02:33:46;;;;;;;4.07;0.73;;;;;;;;;;5009694;28;20096;-76
2023/04/16 02:36:12;;;;;;;6.40;0.90;;;;;;;;;;5009820;28;20026;-75
2023/04/16 02:38:37;;;;;;;3.42;1.05;;;;;;;;;;5009877;28;20394;-75
2023/04/16 02:41:02;;;;;;;7.57;1.00;;;;;;;;;;5009601;28;20021;-76
2023/04/16 02:43:28;;;;;;;6.00;1.10;;;;;;;;;;5009345;28;20745;-76
2023/04/16 02:45:53;;;;;;;6.60;1.30;;;;;;;;;;5009640;28;20041;-76
2023/04/16 02:48:18;;;;;;;6.72;1.10;;;;;;;;;;5009713;28;20050;-73
2023/04/16 02:50:44;;;;;;;6.70;1.30;;;;;;;;;;5010839;28;20358;-74
2023/04/16 02:53:10;;;;;;;8.35;1.30;;;;;;;;;;5013421;28;20052;-76
2023/04/16 02:55:35;;;;;;;8.60;1.45;;;;;;;;;;5013444;28;20037;-76
2023/04/16 02:58:01;;;;;;;6.40;1.20;;;;;;;;;;5013233;28;20029;-76
2023/04/16 03:00:26;;;;;;;7.88;1.23;;;;;;;;;;5013119;28;20112;-75
2023/04/16 03:02:52;;;;;;;6.05;1.15;;;;;;;;;;5013004;28;20022;-76
2023/04/16 03:05:17;;;;;;;5.53;1.00;;;;;;;;;;5013313;28;20041;-75
2023/04/16 03:07:42;;;;;;;4.70;0.95;;;;;;;;;;5013107;28;20038;-76
2023/04/16 03:10:08;;;;;;;7.68;1.17;;;;;;;;;;5013165;28;20029;-76
2023/04/16 03:12:34;;;;;;;13.82;1.38;;;;;;;;;;5012926;28;20120;-75
2023/04/16 03:15:00;;;;;;;6.40;1.13;;;;;;;;;;5012859;28;20049;-75
2023/04/16 03:17:25;;;;;;;8.30;1.20;;;;;;;;;;5012997;28;20038;-75
2023/04/16 03:19:51;;;;;;;4.95;1.20;;;;;;;;;;5012938;28;20037;-76
2023/04/16 03:22:16;;;;;;;8.77;1.90;;;;;;;;;;5012843;28;20030;-76
2023/04/16 03:24:42;;;;;;;7.85;1.20;;;;;;;;;;5012867;28;20168;-75
2023/04/16 03:27:07;;;;;;;7.85;1.20;;;;;;;;;;5012682;28;20030;-72
2023/04/16 03:29:35;;;;;;;9.40;1.23;;;;;;;;;;5012810;28;20030;-76
2023/04/16 03:32:01;;;;;;;5.75;1.15;;;;;;;;;;5012742;28;20112;-74
2023/04/16 03:34:26;;;;;;;9.00;1.55;;;;;;;;;;5012413;28;20061;-76
2023/04/16 03:36:51;;;;;;;5.18;1.15;;;;;;;;;;5012624;28;20036;-76
2023/04/16 03:39:17;;;;;;;5.78;1.27;;;;;;;;;;5012605;28;20048;-75
2023/04/16 03:41:42;;;;;;;5.50;1.05;;;;;;;;;;5012490;28;20037;-72
2023/04/16 03:44:08;;;;;;;6.80;1.30;;;;;;;;;;5012483;28;20037;-76
2023/04/16 03:46:33;;;;;;;7.68;1.00;;;;;;;;;;5011253;28;20116;-75
2023/04/16 03:48:58;;;;;;;7.20;1.35;;;;;;;;;;5012543;28;20030;-72
2023/04/16 03:51:25;;;;;;;9.77;1.40;;;;;;;;;;5012249;28;20075;-73
2023/04/16 03:53:50;;;;;;;5.47;1.10;;;;;;;;;;5012146;28;20022;-75
2023/04/16 03:56:15;;;;;;;11.50;1.83;;;;;;;;;;5012350;28;20112;-75
2023/04/16 03:58:41;;;;;;;7.93;1.30;;;;;;;;;;5012334;28;20034;-75
2023/04/16 04:01:06;;;;;;;3.20;1.05;;;;;;;;;;5012003;28;20026;-75
2023/04/16 04:03:32;;;;;;;9.98;1.30;;;;;;;;;;5012196;28;20662;-75
2023/04/16 04:05:57;;;;;;;8.75;1.38;;;;;;;;;;5012178;28;20435;-76
2023/04/16 04:08:23;;;;;;;7.38;1.40;;;;;;;;;;5011878;28;20058;-75
2023/04/16 04:10:49;;;;;;;7.00;1.55;;;;;;;;;;5011960;28;20032;-75
2023/04/16 04:13:15;;;;;;;5.95;1.20;;;;;;;;;;5011729;28;20037;-75
2023/04/16 04:15:40;;;;;;;8.70;1.50;;;;;;;;;;5011944;28;20076;-76
2023/04/16 04:18:06;;;;;;;5.47;1.30;;;;;;;;;;5011969;28;20087;-75
2023/04/16 04:20:31;;;;;;;6.07;1.40;;;;;;;;;;5012003;28;20037;-76
2023/04/16 04:22:57;;;;;;;6.60;1.20;;;;;;;;;;5011937;28;20131;-76
2023/04/16 04:25:22;;;;;;;8.23;1.50;;;;;;;;;;5011500;28;20425;-75
2023/04/16 04:27:48;;;;;;;6.60;1.13;;;;;;;;;;5011428;28;20029;-73
2023/04/16 04:30:13;;;;;;;8.75;1.30;;;;;;;;;;5011660;28;20044;-74
2023/04/16 04:32:38;;;;;;;9.93;1.20;;;;;;;;;;5011589;28;20109;-76
2023/04/16 04:35:04;;;;;;;5.68;1.10;;;;;;;;;;5011566;28;20033;-75
2023/04/16 04:37:30;;;;;;;4.25;1.30;;;;;;;;;;5011513;28;20446;-75
2023/04/16 04:39:55;;;;;;;5.13;1.20;;;;;;;;;;5011613;28;20026;-76
2023/04/16 04:42:21;;;;;;;5.25;1.42;;;;;;;;;;5011242;28;20026;-76
2023/04/16 04:44:47;;;;;;;6.90;1.30;;;;;;;;;;5011017;28;20030;-76
2023/04/16 04:47:13;;;;;;;8.43;1.40;;;;;;;;;;5011337;28;20022;-76
2023/04/16 04:49:39;;;;;;;5.78;1.25;;;;;;;;;;5011275;28;20033;-76
2023/04/16 04:52:05;;;;;;;8.55;1.13;;;;;;;;;;5011223;28;20128;-75
2023/04/16 04:54:31;;;;;;;8.35;1.27;;;;;;;;;;5011218;28;20029;-70
2023/04/16 04:56:56;;;;;;;4.22;1.15;;;;;;;;;;5011114;28;20537;-76
2023/04/16 04:59:22;;;;;;;6.38;1.70;;;;;;;;;;5011061;28;20108;-75
2023/04/16 05:01:48;;;;;;;7.13;1.27;;;;;;;;;;5011028;28;20026;-75
2023/04/16 05:04:13;;;;;;;7.40;1.70;;;;;;;;;;5010758;28;20580;-74
2023/04/16 05:06:38;;;;;;;8.27;1.23;;;;;;;;;;5011035;28;20021;-76
2023/04/16 05:09:04;;;;;;;6.97;1.40;;;;;;;;;;5010707;28;20061;-76
2023/04/16 05:11:29;;;;;;;6.20;1.40;;;;;;;;;;5010884;28;20048;-75
2023/04/16 05:13:55;;;;;;;6.47;1.20;;;;;;;;;;5009992;28;20053;-76
2023/04/16 05:16:21;;;;;;;7.43;1.20;;;;;;;;;;5010859;28;20417;-75
2023/04/16 05:18:46;;;;;;;7.65;1.42;;;;;;;;;;5010898;28;20072;-75
2023/04/16 05:21:11;;;;;;;7.43;1.23;;;;;;;;;;5010635;28;20030;-75
2023/04/16 05:23:37;;;;;;;5.78;1.30;;;;;;;;;;5010523;28;20390;-75
2023/04/16 05:26:02;;;;;;;6.97;1.48;;;;;;;;;;5010622;28;20029;-75
2023/04/16 05:28:29;;;;;;;4.70;1.05;;;;;;;;;;5010565;28;20087;-76
2023/04/16 05:30:54;;;;;;;5.18;1.35;;;;;;;;;;5010695;28;20075;-75
2023/04/16 05:33:20;;;;;;;5.22;1.30;;;;;;;;;;5010649;28;20113;-76
2023/04/16 05:35:45;;;;;;;10.23;1.42;;;;;;;;;;5010357;28;20485;-75
2023/04/16 05:38:10;;;;;;;9.57;1.83;;;;;;;;;;5010687;28;20037;-75
2023/04/16 05:40:36;;;;;;;8.75;1.40;;;;;;;;;;5010384;28;20022;-75
2023/04/16 05:43:01;;;;;;;11.73;1.50;;;;;;;;;;5010071;28;20049;-75
2023/04/16 05:45:27;;;;;;;6.40;1.67;;;;;;;;;;5010518;28;20034;-75
2023/04/16 05:47:52;;;;;;;8.30;1.30;;;;;;;;;;5010455;28;20681;-76
2023/04/16 05:50:17;;;;;;;5.95;1.50;;;;;;;;;;5010243;28;20026;-75
2023/04/16 05:52:43;;;;;;;8.38;1.40;;;;;;;;;;5010421;28;20025;-76
2023/04/16 05:55:08;;;;;;;4.70;1.20;;;;;;;;;;5009836;28;20026;-75
2023/04/16 05:57:34;;;;;;;6.80;1.50;;;;;;;;;;5010021;28;20440;-75
2023/04/16 05:59:59;;;;;;;8.27;1.55;;;;;;;;;;5010395;28;20425;-75
2023/04/16 06:02:25;;;;;;;7.20;1.50;;;;;;;;;;5010170;28;20038;-76
2023/04/16 06:04:50;;;;;;;5.60;1.30;;;;;;;;;;5010105;28;20041;-76
2023/04/16 06:07:15;;;;;;;7.35;1.58;;;;;;;;;;5010107;28;20036;-76
2023/04/16 06:09:41;;;;;;;4.70;1.60;;;;;;;;;;5010081;28;20030;-76
2023/04/16 06:12:06;;;;;;;6.38;1.20;;;;;;;;;;5009829;28;20030;-75
2023/04/16 06:14:32;;;;;;;9.00;1.60;;;;;;;;;;5009740;28;20026;-76
2023/04/16 06:16:57;;;;;;;7.25;1.48;;;;;;;;;;5010027;28;20036;-75
2023/04/16 06:19:22;;;;;;;8.10;1.90;;;;;;;;;;5010185;28;20018;-76
2023/04/16 06:21:48;;;;;;;12.00;1.60;;;;;;;;;;5010012;28;20029;-76
2023/04/16 06:24:13;;;;;;;6.80;1.60;;;;;;;;;;5010240;28;20034;-76
2023/04/16 06:26:39;;;;;;;8.88;1.60;;;;;;;;;;5014007;28;20104;-76
2023/04/16 06:29:04;;;;;;;11.07;1.40;;;;;;;;;;5013837;28;20065;-76
2023/04/16 06:31:30;;;;;;;8.48;1.63;;;;;;;;;;5013946;28;20029;-75
2023/04/16 06:33:55;;;;;;;6.57;1.13;;;;;;;;;;5013822;28;20520;-75
2023/04/16 06:36:21;;;;;;;11.20;1.38;;;;;;;;;;5013727;28;20339;-75
2023/04/16 06:38:46;;;;;;;12.38;1.50;;;;;;;;;;5013785;28;20030;-76
2023/04/16 06:41:13;;;;;;;7.00;1.30;;;;;;;;;;5013663;28;20036;-76
2023/04/16 06:43:38;;;;;;;6.55;1.63;;;;;;;;;;5013613;28;20022;-76
2023/04/16 06:46:04;;;;;;;6.88;1.30;;;;;;;;;;5013413;28;20018;-75
2023/04/16 06:48:29;;;;;;;10.50;1.23;;;;;;;;;;5013486;28;20074;-75
2023/04/16 06:50:55;;;;;;;8.52;1.27;;;;;;;;;;5013491;28;20041;-76
2023/04/16 06:53:20;;;;;;;6.68;1.40;;;;;;;;;;5013465;28;20382;-75
2023/04/16 06:55:46;;;;;;;8.05;1.67;;;;;;;;;;5013302;28;20056;-76
2023/04/16 06:58:11;;;;;;;10.57;1.48;;;;;;;;;;5013335;28;20101;-76
2023/04/16 07:00:36;;;;;;;6.88;1.35;;;;;;;;;;5013537;28;20052;-75
2023/04/16 07:03:02;;;;;;;12.80;1.80;;;;;;;;;;5013376;28;20065;-76
2023/04/16 07:05:27;;;;;;;7.85;1.25;;;;;;;;;;5013074;28;20040;-76
2023/04/16 07:07:55;;;;;;;6.07;1.50;;;;;;;;;;5012869;28;20045;-76
2023/04/16 07:10:20;;;;;;;8.68;1.70;;;;;;;;;;5013212;28;20041;-75
2023/04/16 07:12:46;;;;;;;6.90;1.35;;;;;;;;;;5013041;28;20030;-75
2023/04/16 07:15:11;;;;;;;8.30;1.80;;;;;;;;;;5013339;28;20169;-75
2023/04/16 07:17:36;;;;;;;12.48;1.50;;;;;;;;;;5013146;28;20485;-75
2023/04/16 07:20:02;;;;;;;7.22;1.25;;;;;;;;;;5013141;28;20025;-75
2023/04/16 07:22:28;;;;;;;8.23;1.25;;;;;;;;;;5012943;28;20448;-76
2023/04/16 07:24:53;;;;;;;8.65;1.48;;;;;;;;;;5012672;28;20030;-75
2023/04/16 07:27:18;;;;;;;7.90;1.33;;;;;;;;;;5012859;28;20025;-76
2023/04/16 07:29:49;;;;;;;4.60;1.10;;;;;;;;;;5012947;28;20622;-75
2023/04/16 07:32:14;;;;;;;7.82;1.33;;;;;;;;;;5012929;28;20029;-74
2023/04/16 07:34:40;;;;;;;6.45;1.33;;;;;;;;;;5012715;28;20061;-75
2023/04/16 07:37:05;;;;;;;11.02;1.70;;;;;;;;;;5011940;28;20025;-75
2023/04/16 07:39:30;;;;;;;8.02;1.48;;;;;;;;;;5012556;28;20071;-74
2023/04/16 07:41:56;;;;;;;9.02;1.60;;;;;;;;;;5012509;28;20501;-75
2023/04/16 07:44:21;;;;;;;5.50;1.15;;;;;;;;;;5011107;28;20079;-76
2023/04/16 07:46:47;;;;;;;9.60;1.23;;;;;;;;;;5012334;28;20022;-76
2023/04/16 07:49:12;;;;;;;7.32;1.40;;;;;;;;;;5012638;28;20104;-76
2023/04/16 07:51:37;;;;;;;13.20;1.40;;;;;;;;;;5012561;28;20489;-78
2023/04/16 07:54:03;;;;;;;11.82;1.55;;;;;;;;;;5012263;28;20026;-78
2023/04/16 07:56:28;;;;;;;9.43;1.30;;;;;;;;;;5012300;28;20034;-80
2023/04/16 07:58:54;;;;;;;11.57;1.50;;;;;;;;;;5012061;28;20059;-78
2023/04/16 08:01:19;;;;;;;6.32;1.50;;;;;;;;;;5012094;28;20038;-78
2023/04/16 08:03:45;;;;;;;9.75;1.52;;;;;;;;;;5012057;28;20033;-79
2023/04/16 08:06:10;;;;;;;9.20;1.40;;;;;;;;;;5012005;28;20033;-73
2023/04/16 08:08:36;;;;;;;7.50;1.35;;;;;;;;;;5011879;28;20034;-75
2023/04/16 08:11:01;;;;;;;8.82;1.48;;;;;;;;;;5012093;28;20046;-75
2023/04/16 08:13:27;;;;;;;15.50;1.60;;;;;;;;;;5011731;28;20030;-89
2023/04/16 08:15:52;;;;;;;8.38;1.60;;;;;;;;;;5011520;28;20057;-77
2023/04/16 08:18:18;;;;;;;7.00;1.35;;;;;;;;;;5011677;28;20048;-83
2023/04/16 08:20:46;;;;;;;7.13;1.65;;;;;;;;;;5010219;28;20145;-87
2023/04/16 08:23:11;;;;;;;9.38;1.67;;;;;;;;;;5011702;28;20105;-84
2023/04/16 08:25:37;;;;;;;5.10;1.38;;;;;;;;;;5011682;28;20109;-82
2023/04/16 08:28:02;;;;;;;8.40;1.50;;;;;;;;;;5011443;28;20044;-83
2023/04/16 08:30:28;;;;;;;5.50;1.35;;;;;;;;;;5011481;28;20030;-82
2023/04/16 08:32:53;;;;;;;6.13;1.52;;;;;;;;;;5011786;28;20046;-80
2023/04/16 08:35:19;;;;;;;7.03;1.40;;;;;;;;;;5003176;28;20110;-78
2023/04/16 08:37:44;;;;;;;7.68;1.20;;;;;;;;;;4994839;28;20041;-80
2023/04/16 08:40:10;;;;;;;7.20;1.35;;;;;;;;;;5011524;28;20543;-78
2023/04/16 08:42:44;;;;;;;7.55;1.42;;;;;;;;;;5008465;28;20026;-76
2023/04/16 08:45:15;;;;;;;8.32;1.38;;;;;;;;;;5011242;28;20485;-78
2023/04/16 08:47:44;;;;;;;7.55;1.33;;;;;;;;;;5010643;28;20068;-80
2023/04/16 08:50:11;;;;;;;5.43;1.27;;;;;;;;;;5012614;28;20425;-82
2023/04/16 08:52:45;;;;;;;6.60;1.30;;;;;;;;;;5011068;28;20034;-78
2023/04/16 08:55:15;;;;;;;7.38;1.27;;;;;;;;;;5009690;28;20025;-66
2023/04/16 08:57:47;;;;;;;6.53;1.30;;;;;;;;;;4991192;28;20517;-80
2023/04/16 09:00:13;;;;;;;7.88;1.77;;;;;;;;;;4999852;28;20021;-85
2023/04/16 09:02:39;;;;;;;5.50;1.20;;;;;;;;;;5017698;28;20018;-69
2023/04/16 09:05:06;;;;;;;6.30;1.33;;;;;;;;;;5019185;28;20072;-64
2023/04/16 09:07:33;;;;;;;6.28;1.30;;;;;;;;;;5014696;28;20030;-68
2023/04/16 09:09:59;;;;;;;7.20;1.20;;;;;;;;;;5014288;28;20041;-71
2023/04/16 09:12:25;;;;;;;7.13;1.75;;;;;;;;;;5017481;28;20037;-70
2023/04/16 09:14:51;;;;;;;5.35;1.20;;;;;;;;;;5017302;28;20155;-70
2023/04/16 09:17:17;;;;;;;7.80;1.50;;;;;;;;;;5020313;28;20030;-68
2023/04/16 09:19:43;;;;;;;5.70;1.30;;;;;;;;;;5019594;28;20042;-64
2023/04/16 09:22:09;;;;;;;5.85;1.30;;;;;;;;;;5016433;28;20045;-64
2023/04/16 09:24:34;;;;;;;5.63;1.25;;;;;;;;;;5017370;28;20087;-66
2023/04/16 09:27:00;;;;;;;5.43;1.10;;;;;;;;;;5017494;28;20026;-65
2023/04/16 09:29:43;;;;;;;7.50;1.40;;;;;;;;;;5020969;28;20038;-64
2023/04/16 09:32:10;;;;;;;6.22;1.10;;;;;;;;;;5021429;28;20032;-64
2023/04/16 09:34:57;;;;;;;5.47;1.33;;;;;;;;;;5021214;28;20029;-64
2023/04/16 09:37:25;;;;;;;3.03;1.15;;;;;;;;;;5016886;28;20123;-64
2023/04/16 09:39:59;;;;;;;3.85;1.27;;;;;;;;;;5008594;28;20022;-74
2023/04/16 09:42:27;;;;;;;9.25;1.55;;;;;;;;;;5011940;28;20022;-64
2023/04/16 09:44:54;;;;;;;5.90;1.25;;;;;;;;;;5009042;28;20076;-64
2023/04/16 09:47:20;;;;;;;5.88;1.30;;;;;;;;;;5007784;28;20034;-65
2023/04/16 09:49:46;;;;;;;8.75;1.90;;;;;;;;;;5008846;28;20036;-64
2023/04/16 09:52:15;;;;;;;6.10;1.60;;;;;;;;;;5009282;28;20030;-64
2023/04/16 09:54:52;;;;;;;4.30;1.10;;;;;;;;;;5009305;28;20033;-67
2023/04/16 09:57:22;;;;;;;5.20;1.30;;;;;;;;;;5008795;28;20037;-68
2023/04/16 09:59:59;;;;;;;3.47;1.17;;;;;;;;;;5008864;28;20024;-70
2023/04/16 10:02:29;;;;;;;6.68;1.30;;;;;;;;;;5008145;28;20204;-71
2023/04/16 10:04:55;;;;;;;3.83;1.10;;;;;;;;;;5009644;28;20030;-64
2023/04/16 10:07:20;;;;;;;5.93;1.40;;;;;;;;;;5009070;28;20036;-67
2023/04/16 10:09:48;;;;;;;6.28;1.23;;;;;;;;;;5009506;28;20049;-76
2023/04/16 10:12:14;;;;;;;3.95;1.17;;;;;;;;;;5009587;28;20030;-67
2023/04/16 10:14:41;;;;;;;3.67;1.20;;;;;;;;;;5009757;28;20026;-79
2023/04/16 10:17:07;;;;;;;4.55;1.15;;;;;;;;;;5009317;28;20465;-64
2023/04/16 10:19:34;;;;;;;3.65;1.17;;;;;;;;;;5008081;28;20030;-68
2023/04/16 10:22:00;;;;;;;5.57;1.00;;;;;;;;;;5009435;28;20026;-68
2023/04/16 10:24:27;;;;;;;5.20;1.30;;;;;;;;;;5009369;28;20440;-68
2023/04/16 10:26:53;;;;;;;4.93;1.90;;;;;;;;;;5009291;28;20105;-81
2023/04/16 10:29:20;;;;;;;6.20;1.20;;;;;;;;;;5009575;28;20026;-65
2023/04/16 10:31:47;;;;;;;8.52;1.48;;;;;;;;;;5009410;28;20105;-65
2023/04/16 10:34:13;;;;;;;9.23;1.35;;;;;;;;;;5009261;28;20034;-65
2023/04/16 10:36:39;;;;;;;3.33;1.15;;;;;;;;;;5009127;28;20036;-64
2023/04/16 10:39:12;;;;;;;5.28;1.10;;;;;;;;;;5009233;28;20519;-64
2023/04/16 10:41:38;;;;;;;4.45;1.20;;;;;;;;;;5009173;28;20037;-65
2023/04/16 10:44:11;;;;;;;4.50;1.20;;;;;;;;;;5007794;28;20026;-68
2023/04/16 10:46:42;;;;;;;3.30;1.00;;;;;;;;;;5009244;28;20492;-64
2023/04/16 10:49:23;;;;;;;4.00;1.15;;;;;;;;;;5009114;28;20551;-64
2023/04/16 10:51:53;;;;;;;4.35;1.10;;;;;;;;;;5009289;28;20033;-64
2023/04/16 10:54:25;;;;;;;5.90;1.27;;;;;;;;;;5009132;28;20041;-66
2023/04/16 10:56:52;;;;;;;3.38;1.23;;;;;;;;;;5008809;28;20105;-64
2023/04/16 10:59:20;;;;;;;6.63;1.02;;;;;;;;;;5009145;28;20022;-65
2023/04/16 11:01:47;;;;;;;2.65;1.00;;;;;;;;;;5009167;28;20026;-64
2023/04/16 11:04:18;;;;;;;5.22;1.23;;;;;;;;;;5009173;28;20393;-64
2023/04/16 11:07:15;;;;;;;5.13;1.35;;;;;;;;;;5009262;28;20030;-74
2023/04/16 11:10:04;;;;;;;5.28;1.40;;;;;;;;;;5009053;28;20045;-66
2023/04/16 11:12:38;;;;;;;7.47;1.60;;;;;;;;;;5004922;28;20038;-63
2023/04/16 11:15:11;;;;;;;4.93;1.25;;;;;;;;;;5011197;28;20026;-68
2023/04/16 11:17:49;;;;;;;3.65;1.20;;;;;;;;;;5012325;28;20030;-63
2023/04/16 11:20:15;;;;;;;5.13;1.20;;;;;;;;;;5012719;28;20053;-70
2023/04/16 11:22:42;;;;;;;3.10;1.23;;;;;;;;;;5012947;28;20037;-63
2023/04/16 11:25:08;;;;;;;7.43;1.13;;;;;;;;;;5012542;28;20148;-63
2023/04/16 11:27:33;;;;;;;5.57;1.40;;;;;;;;;;5010821;28;20076;-68
2023/04/16 11:30:09;;;;;;;4.95;1.40;;;;;;;;;;5012405;28;20164;-71
2023/04/16 11:32:36;;;;;;;4.93;1.40;;;;;;;;;;5012299;28;20041;-65
2023/04/16 11:35:12;;;;;;;2.85;1.15;;;;;;;;;;5012301;28;20061;-67
2023/04/16 11:37:38;;;;;;;5.38;1.33;;;;;;;;;;5012299;28;20513;-66
2023/04/16 11:40:11;;;;;;;3.17;1.30;;;;;;;;;;5012342;28;20022;-62
2023/04/16 11:42:41;;;;;;;3.97;1.38;;;;;;;;;;5012256;28;20029;-65
2023/04/16 11:45:08;;;;;;;4.30;1.25;;;;;;;;;;5012003;28;20033;-64
2023/04/16 11:47:51;;;;;;;5.20;1.23;;;;;;;;;;5011937;28;20195;-63
2023/04/16 11:50:26;;;;;;;4.65;1.23;;;;;;;;;;5010635;28;20034;-62
2023/04/16 11:52:53;;;;;;;4.57;1.17;;;;;;;;;;5012085;28;20049;-67
2023/04/16 11:55:20;;;;;;;2.35;1.10;;;;;;;;;;5012056;28;20109;-63
2023/04/16 11:57:45;;;;;;;5.88;1.33;;;;;;;;;;5011540;28;20037;-65
2023/04/16 12:00:14;;;;;;;4.97;1.40;;;;;;;;;;5011945;28;20528;-67
2023/04/16 12:02:43;;;;;;;3.38;1.30;;;;;;;;;;5011950;28;20030;-65
2023/04/16 12:05:29;;;;;;;5.60;1.30;;;;;;;;;;5011823;28;20038;-62
2023/04/16 12:07:55;;;;;;;5.28;1.58;;;;;;;;;;5011104;28;20042;-63
2023/04/16 12:10:20;;;;;;;3.35;1.30;;;;;;;;;;5011587;28;20064;-63
2023/04/16 12:12:46;;;;;;;4.35;1.20;;;;;;;;;;5011420;28;20515;-63
2023/04/16 12:15:11;;;;;;;3.15;1.17;;;;;;;;;;5011741;28;20038;-64
2023/04/16 12:17:37;;;;;;;4.38;1.40;;;;;;;;;;5011619;28;20185;-67
2023/04/16 12:20:08;;;;;;;5.30;1.48;;;;;;;;;;5011885;28;20030;-76
2023/04/16 12:22:36;;;;;;;5.68;1.40;;;;;;;;;;5011436;28;20112;-62
2023/04/16 12:25:12;;;;;;;3.72;1.50;;;;;;;;;;5011286;28;20112;-67
2023/04/16 12:27:49;;;;;;;4.55;1.50;;;;;;;;;;5010848;28;20041;-67
2023/04/16 12:30:15;;;;;;;7.70;1.40;;;;;;;;;;5009892;28;20030;-67
2023/04/16 12:32:42;;;;;;;3.90;1.40;;;;;;;;;;5011246;28;20037;-63
2023/04/16 12:35:09;;;;;;;4.35;1.50;;;;;;;;;;5011055;28;20046;-62
2023/04/16 12:37:35;;;;;;;3.80;1.20;;;;;;;;;;5011103;28;20108;-63
2023/04/16 12:40:01;;;;;;;4.25;1.35;;;;;;;;;;5010999;28;20202;-62
2023/04/16 12:42:26;;;;;;;5.75;1.70;;;;;;;;;;5010818;28;20018;-62
2023/04/16 12:44:52;;;;;;;3.15;1.40;;;;;;;;;;5010765;28;20109;-62
2023/04/16 12:47:17;;;;;;;2.65;1.20;;;;;;;;;;5010839;28;20026;-62
2023/04/16 12:49:43;;;;;;;5.22;1.60;;;;;;;;;;5010858;28;20532;-66
2023/04/16 12:52:09;;;;;;;7.85;1.55;;;;;;;;;;5010829;28;20036;-65
2023/04/16 12:54:34;;;;;;;3.55;1.10;;;;;;;;;;5010801;28;20026;-65
2023/04/16 12:57:00;;;;;;;4.70;1.33;;;;;;;;;;5010662;28;20350;-62
2023/04/16 12:59:25;;;;;;;2.80;1.40;;;;;;;;;;5009161;28;20511;-69
2023/04/16 13:01:50;;;;;;;5.00;1.40;;;;;;;;;;5010594;28;20040;-62
2023/04/16 13:04:17;;;;;;;3.85;1.20;;;;;;;;;;5010638;28;20485;-62
2023/04/16 13:06:43;;;;;;;3.70;1.40;;;;;;;;;;5010540;28;20022;-62
2023/04/16 13:09:09;;;;;;;3.10;1.13;;;;;;;;;;5010274;28;20653;-65
2023/04/16 13:11:34;;;;;;;3.95;1.25;;;;;;;;;;5009343;28;20022;-64
2023/04/16 13:13:59;;;;;;;3.92;1.45;;;;;;;;;;5010485;28;20025;-62
2023/04/16 13:16:25;;;;;;;4.03;1.48;;;;;;;;;;5010201;28;20073;-62
2023/04/16 13:18:50;;;;;;;2.85;1.20;;;;;;;;;;5010378;28;20030;-62
2023/04/16 13:21:16;;;;;;;3.83;1.10;;;;;;;;;;5010496;28;20053;-62
2023/04/16 13:23:41;;;;;;;3.38;1.20;;;;;;;;;;5010432;28;20524;-62
2023/04/16 13:26:06;;;;;;;3.05;1.10;;;;;;;;;;5009076;28;20243;-62
2023/04/16 13:28:32;;;;;;;4.50;1.20;;;;;;;;;;5010037;28;20481;-62
2023/04/16 13:30:58;;;;;;;3.95;1.30;;;;;;;;;;5010314;28;20030;-62
2023/04/16 13:33:24;;;;;;;2.83;1.20;;;;;;;;;;5010139;28;20051;-64
2023/04/16 13:35:50;;;;;;;4.18;1.10;;;;;;;;;;5009704;28;20133;-72
2023/04/16 13:38:16;;;;;;;2.95;1.17;;;;;;;;;;5010054;28;20670;-62
2023/04/16 13:40:41;;;;;;;3.22;1.13;;;;;;;;;;5010060;28;20022;-62
2023/04/16 13:43:07;;;;;;;5.18;1.40;;;;;;;;;;5009994;28;20040;-62
2023/04/16 13:45:32;;;;;;;5.00;1.33;;;;;;;;;;5010065;28;20028;-62
2023/04/16 13:47:58;;;;;;;4.43;1.30;;;;;;;;;;5009873;28;20518;-62
2023/04/16 13:50:23;;;;;;;4.18;1.10;;;;;;;;;;5009890;28;20039;-61
2023/04/16 13:52:49;;;;;;;4.20;1.10;;;;;;;;;;5009948;28;20026;-62
2023/04/16 13:55:17;;;;;;;4.03;1.00;;;;;;;;;;5009980;28;20022;-64
2023/04/16 13:57:46;;;;;;;2.53;1.00;;;;;;;;;;5009619;28;20025;-62
2023/04/16 14:00:14;;;;;;;3.03;1.05;;;;;;;;;;5009887;28;20057;-63
2023/04/16 14:02:44;;;;;;;2.05;1.00;;;;;;;;;;5009802;28;20173;-63
2023/04/16 14:05:10;;;;;;;3.08;1.10;;;;;;;;;;5010043;28;20076;-71
2023/04/16 14:07:36;;;;;;;3.20;1.02;;;;;;;;;;5009724;28;20457;-62
2023/04/16 14:10:01;;;;;;;4.45;1.10;;;;;;;;;;5009539;28;20030;-78
2023/04/16 14:12:27;;;;;;;3.80;1.02;;;;;;;;;;5009532;28;20021;-67
2023/04/16 14:14:52;;;;;;;2.97;0.95;;;;;;;;;;5009553;28;20079;-62
2023/04/16 14:17:18;;;;;;;3.45;1.00;;;;;;;;;;5009674;28;20062;-69
2023/04/16 14:19:43;;;;;;;2.60;1.00;;;;;;;;;;5009542;28;20171;-63
2023/04/16 14:22:08;;;;;;;4.00;1.02;;;;;;;;;;5009643;28;20026;-68
2023/04/16 14:24:34;;;;;;;3.58;1.02;;;;;;;;;;5009505;28;20100;-64
2023/04/16 14:26:59;;;;;;;1.80;0.90;;;;;;;;;;5009409;28;20030;-63
2023/04/16 14:29:25;;;;;;;2.45;1.10;;;;;;;;;;5009164;28;20030;-63
2023/04/16 14:31:50;;;;;;;2.17;0.90;;;;;;;;;;5009294;28;20665;-63
2023/04/16 14:34:16;;;;;;;4.22;1.10;;;;;;;;;;5009621;28;20022;-64
2023/04/16 14:36:42;;;;;;;4.05;1.10;;;;;;;;;;5009507;28;20619;-62
2023/04/16 14:39:08;;;;;;;1.80;0.90;;;;;;;;;;5009417;28;20494;-62